sensor_id;sensor_type;location;lat;lon;timestamp;P1;durP1;ratioP1;P2;durP2;ratioP2
1206;SDS011;593;53.184;8.216;2023-07-22T00:00:51;3.70;;;3.40;;
1206;SDS011;593;53.184;8.216;2023-07-22T00:03:17;7.53;;;4.10;;
1206;SDS011;593;53.184;8.216;2023-07-22T00:05:42;5.57;;;4.20;;
1206;SDS011;593;53.184;8.216;2023-07-22T00:08:08;4.27;;;3.30;;
1206;SDS011;593;53.184;8.216;2023-07-22T00:10:34;4.03;;;3.63;;
1206;SDS011;593;53.184;8.216;2023-07-22T00:12:59;4.23;;;3.70;;
1206;SDS011;593;53.184;8.216;2023-07-22T00:15:24;4.00;;;3.60;;
1206;SDS011;593;53.184;8.216;2023-07-22T00:17:50;4.57;;;3.73;;
1206;SDS011;593;53.184;8.216;2023-07-22T00:20:16;4.17;;;3.53;;
1206;SDS011;593;53.184;8.216;2023-07-22T00:22:41;4.13;;;3.23;;
1206;SDS011;593;53.184;8.216;2023-07-22T00:25:08;3.70;;;3.27;;
1206;SDS011;593;53.184;8.216;2023-07-22T00:27:36;4.83;;;3.43;;
1206;SDS011;593;53.184;8.216;2023-07-22T00:30:02;5.37;;;3.80;;
1206;SDS011;593;53.184;8.216;2023-07-22T00:32:28;3.33;;;2.93;;
1206;SDS011;593;53.184;8.216;2023-07-22T00:34:53;4.07;;;3.00;;
1206;SDS011;593;53.184;8.216;2023-07-22T00:37:18;6.10;;;3.03;;
1206;SDS011;593;53.184;8.216;2023-07-22T00:39:44;4.20;;;3.37;;
1206;SDS011;593;53.184;8.216;2023-07-22T00:42:09;4.10;;;3.37;;
1206;SDS011;593;53.184;8.216;2023-07-22T00:44:35;3.80;;;3.50;;
1206;SDS011;593;53.184;8.216;2023-07-22T00:47:02;3.87;;;2.87;;
1206;SDS011;593;53.184;8.216;2023-07-22T00:49:27;6.43;;;3.20;;
1206;SDS011;593;53.184;8.216;2023-07-22T00:51:53;3.93;;;3.50;;
1206;SDS011;593;53.184;8.216;2023-07-22T00:54:21;5.83;;;3.60;;
1206;SDS011;593;53.184;8.216;2023-07-22T00:56:46;3.87;;;3.07;;
1206;SDS011;593;53.184;8.216;2023-07-22T00:59:12;4.60;;;3.33;;
1206;SDS011;593;53.184;8.216;2023-07-22T01:01:38;4.70;;;3.23;;
1206;SDS011;593;53.184;8.216;2023-07-22T01:04:04;4.80;;;3.50;;
1206;SDS011;593;53.184;8.216;2023-07-22T01:06:29;3.50;;;3.20;;
1206;SDS011;593;53.184;8.216;2023-07-22T01:08:56;4.07;;;3.37;;
1206;SDS011;593;53.184;8.216;2023-07-22T01:11:23;5.03;;;3.70;;
1206;SDS011;593;53.184;8.216;2023-07-22T01:13:49;5.00;;;3.07;;
1206;SDS011;593;53.184;8.216;2023-07-22T01:16:14;5.80;;;3.20;;
1206;SDS011;593;53.184;8.216;2023-07-22T01:18:39;4.60;;;3.60;;
1206;SDS011;593;53.184;8.216;2023-07-22T01:21:05;3.30;;;3.00;;
1206;SDS011;593;53.184;8.216;2023-07-22T01:23:31;6.43;;;3.80;;
1206;SDS011;593;53.184;8.216;2023-07-22T01:25:57;3.10;;;2.73;;
1206;SDS011;593;53.184;8.216;2023-07-22T01:28:23;5.47;;;3.53;;
1206;SDS011;593;53.184;8.216;2023-07-22T01:30:49;3.30;;;3.00;;
1206;SDS011;593;53.184;8.216;2023-07-22T01:33:14;6.20;;;3.47;;
1206;SDS011;593;53.184;8.216;2023-07-22T01:35:39;5.20;;;3.70;;
1206;SDS011;593;53.184;8.216;2023-07-22T01:38:05;4.97;;;3.50;;
1206;SDS011;593;53.184;8.216;2023-07-22T01:40:30;4.47;;;4.03;;
1206;SDS011;593;53.184;8.216;2023-07-22T01:42:56;5.37;;;3.23;;
1206;SDS011;593;53.184;8.216;2023-07-22T01:45:21;7.20;;;3.10;;
1206;SDS011;593;53.184;8.216;2023-07-22T01:47:46;4.37;;;3.40;;
1206;SDS011;593;53.184;8.216;2023-07-22T01:50:12;6.70;;;3.87;;
1206;SDS011;593;53.184;8.216;2023-07-22T01:52:37;5.40;;;3.87;;
1206;SDS011;593;53.184;8.216;2023-07-22T01:55:03;3.70;;;3.27;;
1206;SDS011;593;53.184;8.216;2023-07-22T01:57:31;3.90;;;2.60;;
1206;SDS011;593;53.184;8.216;2023-07-22T01:59:57;3.17;;;2.87;;
1206;SDS011;593;53.184;8.216;2023-07-22T02:02:22;4.03;;;3.00;;
1206;SDS011;593;53.184;8.216;2023-07-22T02:04:47;5.00;;;3.33;;
1206;SDS011;593;53.184;8.216;2023-07-22T02:07:13;5.97;;;3.03;;
1206;SDS011;593;53.184;8.216;2023-07-22T02:09:38;6.77;;;3.17;;
1206;SDS011;593;53.184;8.216;2023-07-22T02:12:04;4.13;;;2.83;;
1206;SDS011;593;53.184;8.216;2023-07-22T02:14:31;4.40;;;3.13;;
1206;SDS011;593;53.184;8.216;2023-07-22T02:16:56;6.37;;;3.43;;
1206;SDS011;593;53.184;8.216;2023-07-22T02:19:21;6.07;;;2.90;;
1206;SDS011;593;53.184;8.216;2023-07-22T02:21:47;5.80;;;3.80;;
1206;SDS011;593;53.184;8.216;2023-07-22T02:24:14;4.47;;;3.40;;
1206;SDS011;593;53.184;8.216;2023-07-22T02:26:40;4.93;;;3.03;;
1206;SDS011;593;53.184;8.216;2023-07-22T02:29:05;8.70;;;3.80;;
1206;SDS011;593;53.184;8.216;2023-07-22T02:31:30;8.00;;;2.97;;
1206;SDS011;593;53.184;8.216;2023-07-22T02:33:55;6.00;;;3.70;;
1206;SDS011;593;53.184;8.216;2023-07-22T02:36:21;6.33;;;3.50;;
1206;SDS011;593;53.184;8.216;2023-07-22T02:38:46;4.33;;;2.73;;
1206;SDS011;593;53.184;8.216;2023-07-22T02:41:11;4.53;;;3.97;;
1206;SDS011;593;53.184;8.216;2023-07-22T02:43:37;4.50;;;2.70;;
1206;SDS011;593;53.184;8.216;2023-07-22T02:46:02;4.40;;;3.17;;
1206;SDS011;593;53.184;8.216;2023-07-22T02:48:29;4.60;;;2.33;;
1206;SDS011;593;53.184;8.216;2023-07-22T02:50:54;3.70;;;2.93;;
1206;SDS011;593;53.184;8.216;2023-07-22T02:53:20;5.40;;;3.20;;
1206;SDS011;593;53.184;8.216;2023-07-22T02:55:45;3.73;;;2.33;;
1206;SDS011;593;53.184;8.216;2023-07-22T02:58:11;4.57;;;3.13;;
1206;SDS011;593;53.184;8.216;2023-07-22T03:00:36;4.20;;;3.53;;
1206;SDS011;593;53.184;8.216;2023-07-22T03:03:02;6.00;;;2.93;;
1206;SDS011;593;53.184;8.216;2023-07-22T03:05:28;5.07;;;2.70;;
1206;SDS011;593;53.184;8.216;2023-07-22T03:07:54;5.20;;;2.77;;
1206;SDS011;593;53.184;8.216;2023-07-22T03:10:20;5.50;;;3.17;;
1206;SDS011;593;53.184;8.216;2023-07-22T03:12:46;6.30;;;3.17;;
1206;SDS011;593;53.184;8.216;2023-07-22T03:15:12;6.10;;;3.27;;
1206;SDS011;593;53.184;8.216;2023-07-22T03:17:38;5.10;;;3.20;;
1206;SDS011;593;53.184;8.216;2023-07-22T03:20:04;3.87;;;3.07;;
1206;SDS011;593;53.184;8.216;2023-07-22T03:22:34;3.77;;;2.50;;
1206;SDS011;593;53.184;8.216;2023-07-22T03:24:59;6.70;;;3.30;;
1206;SDS011;593;53.184;8.216;2023-07-22T03:27:24;3.57;;;3.10;;
1206;SDS011;593;53.184;8.216;2023-07-22T03:29:50;5.77;;;2.87;;
1206;SDS011;593;53.184;8.216;2023-07-22T03:32:15;4.50;;;3.03;;
1206;SDS011;593;53.184;8.216;2023-07-22T03:34:40;3.37;;;2.87;;
1206;SDS011;593;53.184;8.216;2023-07-22T03:37:06;4.47;;;3.43;;
1206;SDS011;593;53.184;8.216;2023-07-22T03:39:31;4.57;;;3.17;;
1206;SDS011;593;53.184;8.216;2023-07-22T03:41:57;7.00;;;3.20;;
1206;SDS011;593;53.184;8.216;2023-07-22T03:44:22;7.40;;;3.37;;
1206;SDS011;593;53.184;8.216;2023-07-22T03:46:47;3.90;;;3.50;;
1206;SDS011;593;53.184;8.216;2023-07-22T03:49:12;5.43;;;3.63;;
1206;SDS011;593;53.184;8.216;2023-07-22T03:51:38;6.17;;;3.00;;
1206;SDS011;593;53.184;8.216;2023-07-22T03:54:03;4.30;;;3.07;;
1206;SDS011;593;53.184;8.216;2023-07-22T03:56:28;5.83;;;4.17;;
1206;SDS011;593;53.184;8.216;2023-07-22T03:58:54;4.80;;;3.13;;
1206;SDS011;593;53.184;8.216;2023-07-22T04:01:19;4.80;;;3.43;;
1206;SDS011;593;53.184;8.216;2023-07-22T04:03:44;5.70;;;3.33;;
1206;SDS011;593;53.184;8.216;2023-07-22T04:06:10;5.10;;;3.30;;
1206;SDS011;593;53.184;8.216;2023-07-22T04:08:35;5.73;;;3.50;;
1206;SDS011;593;53.184;8.216;2023-07-22T04:11:00;5.37;;;3.63;;
1206;SDS011;593;53.184;8.216;2023-07-22T04:13:26;7.17;;;3.37;;
1206;SDS011;593;53.184;8.216;2023-07-22T04:15:52;6.37;;;3.60;;
1206;SDS011;593;53.184;8.216;2023-07-22T04:18:18;4.70;;;3.20;;
1206;SDS011;593;53.184;8.216;2023-07-22T04:20:44;4.83;;;3.13;;
1206;SDS011;593;53.184;8.216;2023-07-22T04:23:10;8.60;;;3.77;;
1206;SDS011;593;53.184;8.216;2023-07-22T04:25:42;4.77;;;3.17;;
1206;SDS011;593;53.184;8.216;2023-07-22T04:28:09;3.90;;;3.10;;
1206;SDS011;593;53.184;8.216;2023-07-22T04:30:35;4.80;;;3.80;;
1206;SDS011;593;53.184;8.216;2023-07-22T04:33:02;8.00;;;4.40;;
1206;SDS011;593;53.184;8.216;2023-07-22T04:35:32;6.17;;;4.50;;
1206;SDS011;593;53.184;8.216;2023-07-22T04:37:58;5.83;;;3.70;;
1206;SDS011;593;53.184;8.216;2023-07-22T04:40:23;5.53;;;4.00;;
1206;SDS011;593;53.184;8.216;2023-07-22T04:42:50;6.50;;;3.33;;
1206;SDS011;593;53.184;8.216;2023-07-22T04:45:16;5.63;;;4.07;;
1206;SDS011;593;53.184;8.216;2023-07-22T04:47:43;4.67;;;3.50;;
1206;SDS011;593;53.184;8.216;2023-07-22T04:50:11;5.07;;;3.37;;
1206;SDS011;593;53.184;8.216;2023-07-22T04:52:37;6.93;;;4.60;;
1206;SDS011;593;53.184;8.216;2023-07-22T04:55:02;5.20;;;3.60;;
1206;SDS011;593;53.184;8.216;2023-07-22T04:57:37;4.93;;;3.43;;
1206;SDS011;593;53.184;8.216;2023-07-22T05:00:03;6.20;;;4.47;;
1206;SDS011;593;53.184;8.216;2023-07-22T05:02:29;6.60;;;3.83;;
1206;SDS011;593;53.184;8.216;2023-07-22T05:04:55;4.40;;;3.63;;
1206;SDS011;593;53.184;8.216;2023-07-22T05:07:21;4.93;;;3.63;;
1206;SDS011;593;53.184;8.216;2023-07-22T05:09:46;5.63;;;3.57;;
1206;SDS011;593;53.184;8.216;2023-07-22T05:12:12;4.63;;;3.30;;
1206;SDS011;593;53.184;8.216;2023-07-22T05:14:37;6.53;;;3.87;;
1206;SDS011;593;53.184;8.216;2023-07-22T05:17:02;5.50;;;3.03;;
1206;SDS011;593;53.184;8.216;2023-07-22T05:19:28;7.90;;;3.50;;
1206;SDS011;593;53.184;8.216;2023-07-22T05:21:53;6.60;;;3.93;;
1206;SDS011;593;53.184;8.216;2023-07-22T05:24:18;4.10;;;3.17;;
1206;SDS011;593;53.184;8.216;2023-07-22T05:26:45;3.33;;;3.00;;
1206;SDS011;593;53.184;8.216;2023-07-22T05:29:11;5.33;;;3.43;;
1206;SDS011;593;53.184;8.216;2023-07-22T05:31:36;4.20;;;3.20;;
1206;SDS011;593;53.184;8.216;2023-07-22T05:34:02;4.00;;;2.60;;
1206;SDS011;593;53.184;8.216;2023-07-22T05:36:28;5.60;;;2.70;;
1206;SDS011;593;53.184;8.216;2023-07-22T05:38:54;5.00;;;3.17;;
1206;SDS011;593;53.184;8.216;2023-07-22T05:41:19;3.80;;;2.40;;
1206;SDS011;593;53.184;8.216;2023-07-22T05:43:44;4.43;;;2.60;;
1206;SDS011;593;53.184;8.216;2023-07-22T05:46:10;7.53;;;3.17;;
1206;SDS011;593;53.184;8.216;2023-07-22T05:48:35;5.10;;;2.90;;
1206;SDS011;593;53.184;8.216;2023-07-22T05:51:00;3.80;;;2.50;;
1206;SDS011;593;53.184;8.216;2023-07-22T05:53:26;5.40;;;2.60;;
1206;SDS011;593;53.184;8.216;2023-07-22T05:55:51;3.03;;;2.00;;
1206;SDS011;593;53.184;8.216;2023-07-22T05:58:17;2.97;;;2.40;;
1206;SDS011;593;53.184;8.216;2023-07-22T06:00:43;2.93;;;2.30;;
1206;SDS011;593;53.184;8.216;2023-07-22T06:03:08;4.60;;;2.90;;
1206;SDS011;593;53.184;8.216;2023-07-22T06:05:34;3.10;;;2.10;;
1206;SDS011;593;53.184;8.216;2023-07-22T06:07:59;3.47;;;2.03;;
1206;SDS011;593;53.184;8.216;2023-07-22T06:10:24;4.10;;;2.80;;
1206;SDS011;593;53.184;8.216;2023-07-22T06:12:50;4.80;;;2.50;;
1206;SDS011;593;53.184;8.216;2023-07-22T06:15:15;3.10;;;2.73;;
1206;SDS011;593;53.184;8.216;2023-07-22T06:17:41;2.97;;;2.40;;
1206;SDS011;593;53.184;8.216;2023-07-22T06:20:06;3.67;;;2.27;;
1206;SDS011;593;53.184;8.216;2023-07-22T06:22:32;5.00;;;2.20;;
1206;SDS011;593;53.184;8.216;2023-07-22T06:24:57;5.50;;;2.80;;
1206;SDS011;593;53.184;8.216;2023-07-22T06:27:23;4.80;;;3.03;;
1206;SDS011;593;53.184;8.216;2023-07-22T06:29:48;2.87;;;2.40;;
1206;SDS011;593;53.184;8.216;2023-07-22T06:32:13;3.20;;;2.20;;
1206;SDS011;593;53.184;8.216;2023-07-22T06:34:38;3.60;;;3.00;;
1206;SDS011;593;53.184;8.216;2023-07-22T06:37:04;4.03;;;2.47;;
1206;SDS011;593;53.184;8.216;2023-07-22T06:39:29;4.17;;;2.60;;
1206;SDS011;593;53.184;8.216;2023-07-22T06:41:55;4.10;;;2.27;;
1206;SDS011;593;53.184;8.216;2023-07-22T06:44:20;5.47;;;2.10;;
1206;SDS011;593;53.184;8.216;2023-07-22T06:46:46;3.87;;;1.80;;
1206;SDS011;593;53.184;8.216;2023-07-22T06:49:11;3.83;;;2.57;;
1206;SDS011;593;53.184;8.216;2023-07-22T06:51:37;2.13;;;1.83;;
1206;SDS011;593;53.184;8.216;2023-07-22T06:54:02;4.67;;;1.80;;
1206;SDS011;593;53.184;8.216;2023-07-22T06:56:28;2.83;;;1.90;;
1206;SDS011;593;53.184;8.216;2023-07-22T06:58:53;2.10;;;1.60;;
1206;SDS011;593;53.184;8.216;2023-07-22T07:01:18;2.90;;;2.03;;
1206;SDS011;593;53.184;8.216;2023-07-22T07:03:44;2.10;;;1.90;;
1206;SDS011;593;53.184;8.216;2023-07-22T07:06:09;2.17;;;1.97;;
1206;SDS011;593;53.184;8.216;2023-07-22T07:08:34;3.90;;;1.47;;
1206;SDS011;593;53.184;8.216;2023-07-22T07:11:00;2.37;;;1.73;;
1206;SDS011;593;53.184;8.216;2023-07-22T07:13:28;1.93;;;1.27;;
1206;SDS011;593;53.184;8.216;2023-07-22T07:15:54;2.83;;;2.20;;
1206;SDS011;593;53.184;8.216;2023-07-22T07:18:19;1.50;;;1.40;;
1206;SDS011;593;53.184;8.216;2023-07-22T07:20:45;4.43;;;2.23;;
1206;SDS011;593;53.184;8.216;2023-07-22T07:23:10;3.43;;;1.90;;
1206;SDS011;593;53.184;8.216;2023-07-22T07:25:35;2.73;;;1.50;;
1206;SDS011;593;53.184;8.216;2023-07-22T07:28:01;2.60;;;1.70;;
1206;SDS011;593;53.184;8.216;2023-07-22T07:30:26;1.87;;;1.50;;
1206;SDS011;593;53.184;8.216;2023-07-22T07:32:51;3.43;;;1.47;;
1206;SDS011;593;53.184;8.216;2023-07-22T07:35:16;3.33;;;1.50;;
1206;SDS011;593;53.184;8.216;2023-07-22T07:37:42;1.63;;;1.53;;
1206;SDS011;593;53.184;8.216;2023-07-22T07:40:07;1.90;;;1.40;;
1206;SDS011;593;53.184;8.216;2023-07-22T07:42:33;1.67;;;1.10;;
1206;SDS011;593;53.184;8.216;2023-07-22T07:44:58;1.73;;;1.43;;
1206;SDS011;593;53.184;8.216;2023-07-22T07:47:24;3.63;;;1.60;;
1206;SDS011;593;53.184;8.216;2023-07-22T07:49:49;4.20;;;1.60;;
1206;SDS011;593;53.184;8.216;2023-07-22T07:52:14;5.60;;;1.77;;
1206;SDS011;593;53.184;8.216;2023-07-22T07:54:39;5.00;;;1.70;;
1206;SDS011;593;53.184;8.216;2023-07-22T07:57:05;1.80;;;1.40;;
1206;SDS011;593;53.184;8.216;2023-07-22T07:59:31;2.87;;;1.80;;
1206;SDS011;593;53.184;8.216;2023-07-22T08:01:56;2.57;;;1.90;;
1206;SDS011;593;53.184;8.216;2023-07-22T08:04:21;1.87;;;1.67;;
1206;SDS011;593;53.184;8.216;2023-07-22T08:06:48;6.50;;;1.90;;
1206;SDS011;593;53.184;8.216;2023-07-22T08:09:13;4.67;;;2.20;;
1206;SDS011;593;53.184;8.216;2023-07-22T08:11:43;3.13;;;2.07;;
1206;SDS011;593;53.184;8.216;2023-07-22T08:14:09;3.60;;;2.00;;
1206;SDS011;593;53.184;8.216;2023-07-22T08:16:34;2.20;;;1.70;;
1206;SDS011;593;53.184;8.216;2023-07-22T08:19:00;2.27;;;2.07;;
1206;SDS011;593;53.184;8.216;2023-07-22T08:21:25;3.13;;;1.77;;
1206;SDS011;593;53.184;8.216;2023-07-22T08:23:50;4.00;;;2.13;;
1206;SDS011;593;53.184;8.216;2023-07-22T08:26:16;3.43;;;2.63;;
1206;SDS011;593;53.184;8.216;2023-07-22T08:28:45;5.03;;;3.57;;
1206;SDS011;593;53.184;8.216;2023-07-22T08:31:11;4.57;;;2.83;;
1206;SDS011;593;53.184;8.216;2023-07-22T08:33:36;3.47;;;3.10;;
1206;SDS011;593;53.184;8.216;2023-07-22T08:36:02;3.10;;;2.70;;
1206;SDS011;593;53.184;8.216;2023-07-22T08:38:27;3.80;;;2.80;;
1206;SDS011;593;53.184;8.216;2023-07-22T08:40:53;4.93;;;3.70;;
1206;SDS011;593;53.184;8.216;2023-07-22T08:43:21;3.97;;;3.20;;
1206;SDS011;593;53.184;8.216;2023-07-22T08:45:48;4.27;;;2.93;;
1206;SDS011;593;53.184;8.216;2023-07-22T08:48:16;3.20;;;2.90;;
1206;SDS011;593;53.184;8.216;2023-07-22T08:50:51;4.87;;;3.00;;
1206;SDS011;593;53.184;8.216;2023-07-22T08:53:19;3.70;;;3.00;;
1206;SDS011;593;53.184;8.216;2023-07-22T08:55:45;6.10;;;3.97;;
1206;SDS011;593;53.184;8.216;2023-07-22T08:58:13;5.10;;;3.70;;
1206;SDS011;593;53.184;8.216;2023-07-22T09:00:39;6.03;;;4.00;;
1206;SDS011;593;53.184;8.216;2023-07-22T09:03:05;4.00;;;3.53;;
1206;SDS011;593;53.184;8.216;2023-07-22T09:05:31;5.73;;;4.70;;
1206;SDS011;593;53.184;8.216;2023-07-22T09:07:58;4.10;;;3.57;;
1206;SDS011;593;53.184;8.216;2023-07-22T09:10:24;5.20;;;4.10;;
1206;SDS011;593;53.184;8.216;2023-07-22T09:12:51;5.57;;;4.20;;
1206;SDS011;593;53.184;8.216;2023-07-22T09:15:17;4.60;;;4.20;;
1206;SDS011;593;53.184;8.216;2023-07-22T09:17:43;4.00;;;3.63;;
1206;SDS011;593;53.184;8.216;2023-07-22T09:20:10;4.37;;;3.83;;
1206;SDS011;593;53.184;8.216;2023-07-22T09:22:39;4.07;;;3.70;;
1206;SDS011;593;53.184;8.216;2023-07-22T09:27:44;5.40;;;4.60;;
1206;SDS011;593;53.184;8.216;2023-07-22T09:30:26;7.83;;;4.53;;
1206;SDS011;593;53.184;8.216;2023-07-22T09:32:54;6.93;;;4.77;;
1206;SDS011;593;53.184;8.216;2023-07-22T09:35:24;5.30;;;4.40;;
1206;SDS011;593;53.184;8.216;2023-07-22T09:37:52;6.57;;;4.80;;
1206;SDS011;593;53.184;8.216;2023-07-22T09:40:19;5.63;;;4.93;;
1206;SDS011;593;53.184;8.216;2023-07-22T09:42:52;4.93;;;4.40;;
1206;SDS011;593;53.184;8.216;2023-07-22T09:45:19;5.60;;;4.20;;
1206;SDS011;593;53.184;8.216;2023-07-22T09:47:47;6.20;;;4.93;;
1206;SDS011;593;53.184;8.216;2023-07-22T09:50:15;4.23;;;3.43;;
1206;SDS011;593;53.184;8.216;2023-07-22T09:52:45;3.90;;;3.60;;
1206;SDS011;593;53.184;8.216;2023-07-22T09:55:14;4.70;;;3.50;;
1206;SDS011;593;53.184;8.216;2023-07-22T09:57:43;6.00;;;4.50;;
1206;SDS011;593;53.184;8.216;2023-07-22T10:00:11;3.93;;;3.40;;
1206;SDS011;593;53.184;8.216;2023-07-22T10:02:39;7.40;;;3.90;;
1206;SDS011;593;53.184;8.216;2023-07-22T10:05:08;5.10;;;3.63;;
1206;SDS011;593;53.184;8.216;2023-07-22T10:07:37;4.03;;;3.60;;
1206;SDS011;593;53.184;8.216;2023-07-22T10:10:07;5.47;;;4.10;;
1206;SDS011;593;53.184;8.216;2023-07-22T10:12:34;4.13;;;3.70;;
1206;SDS011;593;53.184;8.216;2023-07-22T10:15:00;4.37;;;3.40;;
1206;SDS011;593;53.184;8.216;2023-07-22T10:17:27;5.50;;;3.53;;
1206;SDS011;593;53.184;8.216;2023-07-22T10:19:54;3.43;;;3.13;;
1206;SDS011;593;53.184;8.216;2023-07-22T10:22:20;3.07;;;2.77;;
1206;SDS011;593;53.184;8.216;2023-07-22T10:24:46;3.63;;;3.30;;
1206;SDS011;593;53.184;8.216;2023-07-22T10:27:13;3.10;;;2.90;;
1206;SDS011;593;53.184;8.216;2023-07-22T10:29:41;3.50;;;2.87;;
1206;SDS011;593;53.184;8.216;2023-07-22T10:32:07;2.87;;;2.57;;
1206;SDS011;593;53.184;8.216;2023-07-22T10:34:32;3.90;;;3.10;;
1206;SDS011;593;53.184;8.216;2023-07-22T10:36:57;4.50;;;2.67;;
1206;SDS011;593;53.184;8.216;2023-07-22T10:39:26;4.13;;;3.80;;
1206;SDS011;593;53.184;8.216;2023-07-22T10:42:02;3.83;;;3.43;;
1206;SDS011;593;53.184;8.216;2023-07-22T10:44:38;4.60;;;3.67;;
1206;SDS011;593;53.184;8.216;2023-07-22T10:47:04;3.43;;;3.13;;
1206;SDS011;593;53.184;8.216;2023-07-22T10:49:46;3.23;;;2.93;;
1206;SDS011;593;53.184;8.216;2023-07-22T10:52:13;3.80;;;3.30;;
1206;SDS011;593;53.184;8.216;2023-07-22T10:54:39;4.10;;;3.00;;
1206;SDS011;593;53.184;8.216;2023-07-22T10:57:25;4.40;;;2.67;;
1206;SDS011;593;53.184;8.216;2023-07-22T10:59:50;3.53;;;3.00;;
1206;SDS011;593;53.184;8.216;2023-07-22T11:02:26;3.60;;;3.00;;
1206;SDS011;593;53.184;8.216;2023-07-22T11:04:56;2.50;;;2.30;;
1206;SDS011;593;53.184;8.216;2023-07-22T11:07:30;2.80;;;2.60;;
1206;SDS011;593;53.184;8.216;2023-07-22T11:10:17;4.80;;;3.33;;
1206;SDS011;593;53.184;8.216;2023-07-22T11:12:43;2.50;;;2.30;;
1206;SDS011;593;53.184;8.216;2023-07-22T11:15:10;3.57;;;2.47;;
1206;SDS011;593;53.184;8.216;2023-07-22T11:17:36;3.40;;;2.97;;
1206;SDS011;593;53.184;8.216;2023-07-22T11:20:02;3.90;;;2.50;;
1206;SDS011;593;53.184;8.216;2023-07-22T11:22:28;5.00;;;3.40;;
1206;SDS011;593;53.184;8.216;2023-07-22T11:24:56;3.13;;;2.83;;
1206;SDS011;593;53.184;8.216;2023-07-22T11:27:25;3.07;;;2.77;;
1206;SDS011;593;53.184;8.216;2023-07-22T11:29:50;2.87;;;2.53;;
1206;SDS011;593;53.184;8.216;2023-07-22T11:32:16;2.70;;;2.50;;
1206;SDS011;593;53.184;8.216;2023-07-22T11:34:43;3.43;;;2.60;;
1206;SDS011;593;53.184;8.216;2023-07-22T11:37:09;2.40;;;2.20;;
1206;SDS011;593;53.184;8.216;2023-07-22T11:39:35;2.73;;;2.53;;
1206;SDS011;593;53.184;8.216;2023-07-22T11:42:01;3.30;;;2.20;;
1206;SDS011;593;53.184;8.216;2023-07-22T11:44:27;2.87;;;2.57;;
1206;SDS011;593;53.184;8.216;2023-07-22T11:47:00;4.13;;;3.03;;
1206;SDS011;593;53.184;8.216;2023-07-22T11:50:01;2.70;;;2.50;;
1206;SDS011;593;53.184;8.216;2023-07-22T11:52:19;3.93;;;3.30;;
1206;SDS011;593;53.184;8.216;2023-07-22T11:54:45;3.57;;;3.37;;
1206;SDS011;593;53.184;8.216;2023-07-22T11:57:22;2.90;;;2.70;;
1206;SDS011;593;53.184;8.216;2023-07-22T11:59:49;6.57;;;4.00;;
1206;SDS011;593;53.184;8.216;2023-07-22T12:02:16;4.47;;;4.07;;
1206;SDS011;593;53.184;8.216;2023-07-22T12:04:43;4.20;;;3.77;;
1206;SDS011;593;53.184;8.216;2023-07-22T12:07:23;5.20;;;4.27;;
1206;SDS011;593;53.184;8.216;2023-07-22T12:09:49;5.30;;;4.80;;
1206;SDS011;593;53.184;8.216;2023-07-22T12:12:14;6.53;;;5.50;;
1206;SDS011;593;53.184;8.216;2023-07-22T12:14:40;5.13;;;4.63;;
1206;SDS011;593;53.184;8.216;2023-07-22T12:17:07;5.30;;;4.80;;
1206;SDS011;593;53.184;8.216;2023-07-22T12:19:34;5.80;;;4.83;;
1206;SDS011;593;53.184;8.216;2023-07-22T12:21:59;5.47;;;4.70;;
1206;SDS011;593;53.184;8.216;2023-07-22T12:24:24;5.50;;;5.00;;
1206;SDS011;593;53.184;8.216;2023-07-22T12:26:50;4.90;;;3.93;;
1206;SDS011;593;53.184;8.216;2023-07-22T12:29:15;4.10;;;3.70;;
1206;SDS011;593;53.184;8.216;2023-07-22T12:31:40;4.00;;;3.53;;
1206;SDS011;593;53.184;8.216;2023-07-22T12:34:05;4.50;;;3.87;;
1206;SDS011;593;53.184;8.216;2023-07-22T12:36:31;5.53;;;4.50;;
1206;SDS011;593;53.184;8.216;2023-07-22T12:38:56;4.97;;;4.43;;
1206;SDS011;593;53.184;8.216;2023-07-22T12:41:21;5.70;;;3.73;;
1206;SDS011;593;53.184;8.216;2023-07-22T12:43:46;4.97;;;4.40;;
1206;SDS011;593;53.184;8.216;2023-07-22T12:46:14;4.40;;;4.00;;
1206;SDS011;593;53.184;8.216;2023-07-22T12:48:39;5.50;;;4.60;;
1206;SDS011;593;53.184;8.216;2023-07-22T12:51:04;4.77;;;4.37;;
1206;SDS011;593;53.184;8.216;2023-07-22T12:53:30;4.43;;;4.03;;
1206;SDS011;593;53.184;8.216;2023-07-22T12:55:55;5.90;;;4.10;;
1206;SDS011;593;53.184;8.216;2023-07-22T12:58:20;3.97;;;3.67;;
1206;SDS011;593;53.184;8.216;2023-07-22T13:00:45;4.33;;;4.00;;
1206;SDS011;593;53.184;8.216;2023-07-22T13:03:11;3.60;;;3.30;;
1206;SDS011;593;53.184;8.216;2023-07-22T13:05:36;4.90;;;4.30;;
1206;SDS011;593;53.184;8.216;2023-07-22T13:08:01;5.93;;;3.83;;
1206;SDS011;593;53.184;8.216;2023-07-22T13:10:29;3.30;;;3.00;;
1206;SDS011;593;53.184;8.216;2023-07-22T13:12:55;3.30;;;3.10;;
1206;SDS011;593;53.184;8.216;2023-07-22T13:15:21;3.83;;;3.40;;
1206;SDS011;593;53.184;8.216;2023-07-22T13:17:46;3.80;;;3.40;;
1206;SDS011;593;53.184;8.216;2023-07-22T13:20:11;3.87;;;3.00;;
1206;SDS011;593;53.184;8.216;2023-07-22T13:22:37;6.43;;;3.60;;
1206;SDS011;593;53.184;8.216;2023-07-22T13:25:03;3.40;;;3.10;;
1206;SDS011;593;53.184;8.216;2023-07-22T13:27:29;3.43;;;3.13;;
1206;SDS011;593;53.184;8.216;2023-07-22T13:29:54;2.80;;;2.60;;
1206;SDS011;593;53.184;8.216;2023-07-22T13:32:19;2.17;;;2.03;;
1206;SDS011;593;53.184;8.216;2023-07-22T13:34:45;3.73;;;2.30;;
1206;SDS011;593;53.184;8.216;2023-07-22T13:37:10;2.30;;;2.20;;
1206;SDS011;593;53.184;8.216;2023-07-22T13:39:35;2.60;;;2.10;;
1206;SDS011;593;53.184;8.216;2023-07-22T13:42:01;2.93;;;2.70;;
1206;SDS011;593;53.184;8.216;2023-07-22T13:44:27;3.37;;;2.97;;
1206;SDS011;593;53.184;8.216;2023-07-22T13:46:52;3.27;;;2.90;;
1206;SDS011;593;53.184;8.216;2023-07-22T13:49:17;2.93;;;2.70;;
1206;SDS011;593;53.184;8.216;2023-07-22T13:51:42;3.13;;;2.83;;
1206;SDS011;593;53.184;8.216;2023-07-22T13:54:08;2.93;;;2.37;;
1206;SDS011;593;53.184;8.216;2023-07-22T13:56:33;2.93;;;2.67;;
1206;SDS011;593;53.184;8.216;2023-07-22T13:58:59;3.47;;;3.27;;
1206;SDS011;593;53.184;8.216;2023-07-22T14:01:26;2.97;;;2.53;;
1206;SDS011;593;53.184;8.216;2023-07-22T14:03:51;3.13;;;2.90;;
1206;SDS011;593;53.184;8.216;2023-07-22T14:06:16;2.90;;;2.70;;
1206;SDS011;593;53.184;8.216;2023-07-22T14:08:42;3.67;;;3.37;;
1206;SDS011;593;53.184;8.216;2023-07-22T14:11:07;4.40;;;4.00;;
1206;SDS011;593;53.184;8.216;2023-07-22T14:13:33;4.60;;;4.27;;
1206;SDS011;593;53.184;8.216;2023-07-22T14:15:58;5.03;;;4.53;;
1206;SDS011;593;53.184;8.216;2023-07-22T14:18:23;4.50;;;4.07;;
1206;SDS011;593;53.184;8.216;2023-07-22T14:20:49;5.00;;;4.60;;
1206;SDS011;593;53.184;8.216;2023-07-22T14:23:15;4.50;;;4.10;;
1206;SDS011;593;53.184;8.216;2023-07-22T14:25:40;4.20;;;3.80;;
1206;SDS011;593;53.184;8.216;2023-07-22T14:28:06;4.20;;;3.80;;
1206;SDS011;593;53.184;8.216;2023-07-22T14:30:31;5.77;;;5.27;;
1206;SDS011;593;53.184;8.216;2023-07-22T14:32:57;6.30;;;5.80;;
1206;SDS011;593;53.184;8.216;2023-07-22T14:35:22;5.90;;;5.00;;
1206;SDS011;593;53.184;8.216;2023-07-22T14:37:47;6.20;;;4.97;;
1206;SDS011;593;53.184;8.216;2023-07-22T14:40:13;6.23;;;5.63;;
1206;SDS011;593;53.184;8.216;2023-07-22T14:42:39;6.10;;;5.00;;
1206;SDS011;593;53.184;8.216;2023-07-22T14:45:04;5.60;;;4.93;;
1206;SDS011;593;53.184;8.216;2023-07-22T14:47:31;4.67;;;4.30;;
1206;SDS011;593;53.184;8.216;2023-07-22T14:49:56;5.40;;;4.90;;
1206;SDS011;593;53.184;8.216;2023-07-22T14:52:21;5.80;;;5.20;;
1206;SDS011;593;53.184;8.216;2023-07-22T14:54:47;5.27;;;4.87;;
1206;SDS011;593;53.184;8.216;2023-07-22T14:57:14;5.20;;;4.70;;
1206;SDS011;593;53.184;8.216;2023-07-22T14:59:39;6.13;;;5.53;;
1206;SDS011;593;53.184;8.216;2023-07-22T15:02:05;6.80;;;6.10;;
1206;SDS011;593;53.184;8.216;2023-07-22T15:04:31;5.50;;;4.87;;
1206;SDS011;593;53.184;8.216;2023-07-22T15:06:56;6.20;;;5.70;;
1206;SDS011;593;53.184;8.216;2023-07-22T15:09:22;5.23;;;4.73;;
1206;SDS011;593;53.184;8.216;2023-07-22T15:11:47;5.27;;;4.77;;
1206;SDS011;593;53.184;8.216;2023-07-22T15:14:12;6.00;;;4.50;;
1206;SDS011;593;53.184;8.216;2023-07-22T15:16:37;5.30;;;4.80;;
1206;SDS011;593;53.184;8.216;2023-07-22T15:19:03;6.27;;;5.47;;
1206;SDS011;593;53.184;8.216;2023-07-22T15:21:28;5.03;;;4.53;;
1206;SDS011;593;53.184;8.216;2023-07-22T15:23:53;4.53;;;4.13;;
1206;SDS011;593;53.184;8.216;2023-07-22T15:26:20;4.70;;;4.17;;